createdAt,value
2016-08-20T00:00:01.340Z,991.9
2016-08-20T00:00:25.441Z,991.9
2016-08-20T00:00:49.617Z,991.9
2016-08-20T00:01:13.753Z,991.9
2016-08-20T00:01:37.887Z,991.9
2016-08-20T00:02:02.020Z,991.9
2016-08-20T00:02:26.172Z,991.9
2016-08-20T00:02:50.312Z,991.9
2016-08-20T00:03:14.436Z,991.9
2016-08-20T00:03:38.572Z,991.9
2016-08-20T00:04:02.690Z,991.9
2016-08-20T00:04:26.795Z,992
2016-08-20T00:04:50.899Z,991.9
2016-08-20T00:05:14.999Z,992
2016-08-20T00:05:39.148Z,992
2016-08-20T00:06:03.291Z,992
2016-08-20T00:06:27.468Z,991.9
2016-08-20T00:06:51.575Z,991.9
2016-08-20T00:07:15.721Z,991.9
2016-08-20T00:07:39.846Z,991.9
2016-08-20T00:08:03.939Z,992
2016-08-20T00:08:28.165Z,991.9
2016-08-20T00:08:52.316Z,992
2016-08-20T00:09:16.455Z,992
2016-08-20T00:09:40.581Z,991.9
2016-08-20T00:10:04.720Z,991.9
2016-08-20T00:10:28.875Z,991.9
2016-08-20T00:10:53.025Z,991.9
2016-08-20T00:11:17.287Z,991.9
2016-08-20T00:11:41.412Z,992
2016-08-20T00:12:05.543Z,992
2016-08-20T00:12:29.671Z,991.9
2016-08-20T00:12:54.024Z,991.9
2016-08-20T00:13:18.122Z,991.9
2016-08-20T00:13:42.253Z,991.9
2016-08-20T00:14:06.429Z,991.9
2016-08-20T00:14:30.608Z,991.9
2016-08-20T00:14:54.711Z,991.9
2016-08-20T00:15:18.842Z,991.9
2016-08-20T00:15:42.979Z,991.9
2016-08-20T00:16:07.198Z,991.9
2016-08-20T00:16:31.319Z,991.9
2016-08-20T00:16:55.426Z,991.9
2016-08-20T00:17:19.539Z,991.9
2016-08-20T00:17:43.699Z,991.9
2016-08-20T00:18:07.812Z,991.9
2016-08-20T00:18:31.924Z,991.9
2016-08-20T00:18:56.017Z,991.9
2016-08-20T00:19:20.126Z,991.9
2016-08-20T00:19:44.245Z,991.9
2016-08-20T00:20:08.361Z,991.9
2016-08-20T00:20:32.490Z,991.9
2016-08-20T00:20:56.635Z,991.8
2016-08-20T00:21:20.822Z,991.9
2016-08-20T00:21:44.979Z,991.9
2016-08-20T00:22:09.113Z,991.8
2016-08-20T00:22:33.237Z,991.9
2016-08-20T00:22:57.341Z,991.9
2016-08-20T00:23:21.431Z,991.9
2016-08-20T00:23:45.529Z,991.9
2016-08-20T00:24:09.639Z,991.8
2016-08-20T00:24:33.759Z,991.8
2016-08-20T00:24:57.880Z,991.8
2016-08-20T00:25:21.994Z,991.9
2016-08-20T00:25:46.112Z,991.8
2016-08-20T00:26:10.246Z,991.8
2016-08-20T00:26:34.404Z,991.8
2016-08-20T00:26:58.600Z,991.8
2016-08-20T00:27:22.722Z,991.8
2016-08-20T00:27:46.838Z,991.8
2016-08-20T00:28:10.955Z,991.8
2016-08-20T00:28:35.066Z,991.8
2016-08-20T00:28:59.209Z,991.8
2016-08-20T00:29:23.371Z,991.8
2016-08-20T00:29:47.472Z,991.8
2016-08-20T00:30:11.601Z,991.8
2016-08-20T00:30:35.734Z,991.8
2016-08-20T00:30:59.857Z,991.8
2016-08-20T00:31:24.001Z,991.8
2016-08-20T00:31:48.102Z,991.8
2016-08-20T00:32:12.250Z,991.8
2016-08-20T00:32:36.369Z,991.8
2016-08-20T00:33:00.480Z,991.8
2016-08-20T00:33:24.610Z,991.8
2016-08-20T00:33:48.724Z,991.8
2016-08-20T00:34:12.835Z,991.8
2016-08-20T00:34:36.972Z,991.8
2016-08-20T00:35:01.097Z,991.8
2016-08-20T00:35:25.250Z,991.8
2016-08-20T00:35:49.422Z,991.8
2016-08-20T00:36:13.544Z,991.8
2016-08-20T00:36:37.683Z,991.8
2016-08-20T00:37:01.801Z,991.8
2016-08-20T00:37:25.958Z,991.8
2016-08-20T00:37:50.192Z,991.8
2016-08-20T00:38:14.372Z,991.8
2016-08-20T00:38:38.538Z,991.8
2016-08-20T00:39:02.720Z,991.8
2016-08-20T00:39:26.825Z,991.8
2016-08-20T00:39:50.970Z,991.8
2016-08-20T00:40:15.119Z,991.8
2016-08-20T00:40:39.294Z,991.8
2016-08-20T00:41:03.422Z,991.8
2016-08-20T00:41:27.547Z,991.8
2016-08-20T00:41:51.721Z,991.8
2016-08-20T00:42:15.853Z,991.8
2016-08-20T00:42:39.975Z,991.8
2016-08-20T00:43:04.089Z,991.8
2016-08-20T00:43:28.230Z,991.8
2016-08-20T00:43:52.352Z,991.8
2016-08-20T00:44:16.470Z,991.8
2016-08-20T00:44:40.613Z,991.8
2016-08-20T00:45:04.719Z,991.8
2016-08-20T00:45:28.816Z,991.8
2016-08-20T00:45:52.933Z,991.8
2016-08-20T00:46:17.056Z,991.8
2016-08-20T00:46:41.164Z,991.8
2016-08-20T00:47:05.276Z,991.8
2016-08-20T00:47:29.383Z,991.8
2016-08-20T00:47:53.491Z,991.8
2016-08-20T00:48:17.584Z,991.8
2016-08-20T00:48:41.686Z,991.8
2016-08-20T00:49:05.833Z,991.8
2016-08-20T00:49:29.914Z,991.8
2016-08-20T00:49:54.041Z,991.8
2016-08-20T00:50:18.167Z,991.8
2016-08-20T00:50:42.278Z,991.8
2016-08-20T00:51:06.374Z,991.8
2016-08-20T00:51:30.497Z,991.8
2016-08-20T00:51:54.629Z,991.8
2016-08-20T00:52:18.747Z,991.8
2016-08-20T00:52:42.848Z,991.8
2016-08-20T00:53:06.950Z,991.8
2016-08-20T00:53:31.071Z,991.8
2016-08-20T00:53:55.226Z,991.8
2016-08-20T00:54:19.329Z,991.8
2016-08-20T00:54:43.427Z,991.8
2016-08-20T00:55:07.548Z,991.8
2016-08-20T00:55:31.689Z,991.8
2016-08-20T00:55:55.807Z,991.8
2016-08-20T00:56:19.690Z,991.8
2016-08-20T00:56:43.842Z,991.8
2016-08-20T00:57:07.952Z,991.8
2016-08-20T00:57:32.096Z,991.8
2016-08-20T00:57:56.195Z,991.8
2016-08-20T00:58:20.296Z,991.8
2016-08-20T00:58:44.413Z,991.8
2016-08-20T00:59:08.542Z,991.8
2016-08-20T00:59:32.638Z,991.8
2016-08-20T00:59:56.744Z,991.8
2016-08-20T01:00:20.854Z,991.8
2016-08-20T01:00:44.992Z,991.8
2016-08-20T01:01:09.159Z,991.8
2016-08-20T01:01:33.331Z,991.8
2016-08-20T01:01:57.444Z,991.8
2016-08-20T01:02:21.558Z,991.9
2016-08-20T01:02:45.658Z,991.8
2016-08-20T01:03:09.787Z,991.8
2016-08-20T01:03:33.978Z,991.8
2016-08-20T01:03:58.154Z,991.9
2016-08-20T01:04:22.276Z,991.8
2016-08-20T01:04:46.372Z,991.8
2016-08-20T01:05:10.479Z,991.9
2016-08-20T01:05:34.594Z,991.8
2016-08-20T01:05:58.739Z,991.8
2016-08-20T01:06:22.887Z,991.9
2016-08-20T01:06:47.024Z,991.8
2016-08-20T01:07:11.218Z,991.8
2016-08-20T01:07:35.358Z,991.8
2016-08-20T01:07:59.517Z,991.8
2016-08-20T01:08:23.642Z,991.8
2016-08-20T01:08:47.784Z,991.8
2016-08-20T01:09:11.915Z,991.9
2016-08-20T01:09:36.016Z,991.8
2016-08-20T01:10:00.129Z,991.8
2016-08-20T01:10:24.243Z,991.8
2016-08-20T01:10:48.344Z,991.8
2016-08-20T01:11:12.443Z,991.8
2016-08-20T01:11:36.536Z,991.8
2016-08-20T01:12:00.648Z,991.8
2016-08-20T01:12:24.822Z,991.9
2016-08-20T01:12:48.998Z,991.8
2016-08-20T01:13:13.099Z,991.8
2016-08-20T01:13:37.209Z,991.8
2016-08-20T01:14:01.387Z,991.8
2016-08-20T01:14:25.499Z,991.9
2016-08-20T01:14:49.612Z,991.8
2016-08-20T01:15:13.723Z,991.8
2016-08-20T01:15:37.840Z,991.8
2016-08-20T01:16:01.950Z,991.8
2016-08-20T01:16:26.072Z,991.8
2016-08-20T01:16:50.187Z,991.8
2016-08-20T01:17:14.415Z,991.8
2016-08-20T01:17:38.549Z,991.8
2016-08-20T01:18:03.061Z,991.8
2016-08-20T01:18:27.219Z,991.8
2016-08-20T01:18:51.339Z,991.8
2016-08-20T01:19:15.451Z,991.8
2016-08-20T01:19:39.560Z,991.8
2016-08-20T01:20:03.691Z,991.8
2016-08-20T01:20:28.772Z,991.8
2016-08-20T01:20:52.901Z,991.8
2016-08-20T01:21:17.016Z,991.8
2016-08-20T01:21:41.119Z,991.8
2016-08-20T01:22:05.262Z,991.8
2016-08-20T01:22:29.398Z,991.8
2016-08-20T01:22:53.493Z,991.8
2016-08-20T01:23:17.606Z,991.8
2016-08-20T01:23:41.744Z,991.7
2016-08-20T01:24:05.863Z,991.7
2016-08-20T01:24:29.997Z,991.8
2016-08-20T01:24:54.099Z,991.7
2016-08-20T01:25:18.247Z,991.8
2016-08-20T01:25:42.407Z,991.7
2016-08-20T01:26:06.535Z,991.7
2016-08-20T01:26:30.649Z,991.7
2016-08-20T01:26:54.781Z,991.7
2016-08-20T01:27:18.930Z,991.7
2016-08-20T01:27:43.031Z,991.7
2016-08-20T01:28:07.142Z,991.7
2016-08-20T01:28:31.285Z,991.7
2016-08-20T01:28:55.430Z,991.8
2016-08-20T01:29:19.519Z,991.7
2016-08-20T01:29:43.640Z,991.7
2016-08-20T01:30:07.744Z,991.7
2016-08-20T01:30:31.872Z,991.7
2016-08-20T01:30:55.986Z,991.7
2016-08-20T01:31:20.092Z,991.7
2016-08-20T01:31:44.208Z,991.7
2016-08-20T01:32:08.383Z,991.7
2016-08-20T01:32:32.522Z,991.7
2016-08-20T01:32:56.618Z,991.7
2016-08-20T01:33:20.737Z,991.7
2016-08-20T01:33:44.865Z,991.7
2016-08-20T01:34:09.031Z,991.7
2016-08-20T01:34:33.102Z,991.7
2016-08-20T01:34:57.210Z,991.8
2016-08-20T01:35:21.344Z,991.8
2016-08-20T01:35:45.468Z,991.8
2016-08-20T01:36:09.610Z,991.7
2016-08-20T01:36:33.721Z,991.8
2016-08-20T01:36:57.836Z,991.8
2016-08-20T01:37:21.949Z,991.8
2016-08-20T01:37:46.054Z,991.7
2016-08-20T01:38:10.167Z,991.8
2016-08-20T01:38:34.280Z,991.7
2016-08-20T01:38:58.437Z,991.7
2016-08-20T01:39:22.541Z,991.8
2016-08-20T01:39:46.683Z,991.8
2016-08-20T01:40:10.786Z,991.8
2016-08-20T01:40:34.897Z,991.7
2016-08-20T01:40:59.025Z,991.7
2016-08-20T01:41:23.121Z,991.7
2016-08-20T01:41:47.255Z,991.7
2016-08-20T01:42:11.362Z,991.7
2016-08-20T01:42:35.487Z,991.7
2016-08-20T01:42:59.581Z,991.7
2016-08-20T01:43:23.706Z,991.7
2016-08-20T01:43:47.811Z,991.7
2016-08-20T01:44:11.936Z,991.7
2016-08-20T01:44:36.062Z,991.7
2016-08-20T01:45:00.176Z,991.7
2016-08-20T01:45:24.292Z,991.7
2016-08-20T01:45:48.388Z,991.7
2016-08-20T01:46:12.509Z,991.7
2016-08-20T01:46:36.637Z,991.6
2016-08-20T01:47:00.763Z,991.7
2016-08-20T01:47:24.871Z,991.7
2016-08-20T01:47:48.981Z,991.7
2016-08-20T01:48:13.101Z,991.7
2016-08-20T01:48:37.229Z,991.7
2016-08-20T01:49:01.379Z,991.7
2016-08-20T01:49:25.500Z,991.7
2016-08-20T01:49:49.628Z,991.7
2016-08-20T01:50:13.724Z,991.7
2016-08-20T01:50:37.851Z,991.7
2016-08-20T01:51:01.994Z,991.6
2016-08-20T01:51:26.119Z,991.7
2016-08-20T01:51:50.248Z,991.7
2016-08-20T01:52:14.393Z,991.7
2016-08-20T01:52:38.490Z,991.7
2016-08-20T01:53:02.627Z,991.7
2016-08-20T01:53:26.762Z,991.7
2016-08-20T01:53:50.910Z,991.7
2016-08-20T01:54:15.052Z,991.6
2016-08-20T01:54:39.219Z,991.7
2016-08-20T01:55:03.363Z,991.7
2016-08-20T01:55:27.527Z,991.7
2016-08-20T01:55:51.660Z,991.7
2016-08-20T01:56:15.772Z,991.7
2016-08-20T01:56:39.869Z,991.7
2016-08-20T01:57:04.025Z,991.7
2016-08-20T01:57:28.145Z,991.7
2016-08-20T01:57:52.290Z,991.7
2016-08-20T01:58:16.404Z,991.7
2016-08-20T01:58:40.544Z,991.7
2016-08-20T01:59:04.652Z,991.7
2016-08-20T01:59:28.797Z,991.7
2016-08-20T01:59:52.923Z,991.7
2016-08-20T02:00:17.065Z,991.7
2016-08-20T02:00:41.216Z,991.7
2016-08-20T02:01:05.314Z,991.7
2016-08-20T02:01:29.443Z,991.7
2016-08-20T02:01:53.555Z,991.7
2016-08-20T02:02:17.678Z,991.7
2016-08-20T02:02:41.785Z,991.7
2016-08-20T02:03:05.890Z,991.7
2016-08-20T02:03:30.054Z,991.7
2016-08-20T02:03:54.177Z,991.7
2016-08-20T02:04:18.302Z,991.7
2016-08-20T02:04:42.420Z,991.7
2016-08-20T02:05:06.529Z,991.7
2016-08-20T02:05:30.642Z,991.7
2016-08-20T02:05:54.781Z,991.7
2016-08-20T02:06:18.892Z,991.6
2016-08-20T02:06:43.009Z,991.7
2016-08-20T02:07:07.171Z,991.6
2016-08-20T02:07:31.363Z,991.6
2016-08-20T02:07:55.462Z,991.6
2016-08-20T02:08:19.638Z,991.7
2016-08-20T02:08:43.745Z,991.6
2016-08-20T02:09:08.108Z,991.7
2016-08-20T02:09:32.219Z,991.7
2016-08-20T02:09:56.344Z,991.7
2016-08-20T02:10:20.495Z,991.6
2016-08-20T02:10:44.605Z,991.7
2016-08-20T02:11:08.714Z,991.7
2016-08-20T02:11:32.837Z,991.7
2016-08-20T02:11:56.999Z,991.6
2016-08-20T02:12:21.171Z,991.6
2016-08-20T02:12:45.273Z,991.6
2016-08-20T02:13:09.390Z,991.7
2016-08-20T02:13:33.528Z,991.7
2016-08-20T02:13:57.650Z,991.6
2016-08-20T02:14:21.762Z,991.6
2016-08-20T02:14:45.898Z,991.6
2016-08-20T02:15:10.089Z,991.7
2016-08-20T02:15:34.269Z,991.6
2016-08-20T02:15:58.434Z,991.6
2016-08-20T02:16:22.580Z,991.6
2016-08-20T02:16:46.729Z,991.6
2016-08-20T02:17:10.879Z,991.6
2016-08-20T02:17:35.025Z,991.7
2016-08-20T02:17:59.128Z,991.7
2016-08-20T02:18:23.245Z,991.7
2016-08-20T02:18:48.953Z,991.7
2016-08-20T02:19:13.052Z,991.7
2016-08-20T02:19:37.160Z,991.6
2016-08-20T02:20:01.265Z,991.7
2016-08-20T02:20:25.405Z,991.6
2016-08-20T02:20:49.538Z,991.7
2016-08-20T02:21:13.675Z,991.6
2016-08-20T02:21:37.844Z,991.6
2016-08-20T02:22:01.970Z,991.7
2016-08-20T02:22:26.094Z,991.7
2016-08-20T02:22:50.193Z,991.7
2016-08-20T02:23:14.317Z,991.7
2016-08-20T02:23:38.448Z,991.7
2016-08-20T02:24:02.565Z,991.7
2016-08-20T02:24:26.680Z,991.7
2016-08-20T02:24:50.849Z,991.7
2016-08-20T02:25:15.022Z,991.7
2016-08-20T02:25:39.149Z,991.7
2016-08-20T02:26:03.263Z,991.7
2016-08-20T02:26:27.387Z,991.7
2016-08-20T02:26:51.521Z,991.7
2016-08-20T02:27:15.641Z,991.7
2016-08-20T02:27:39.795Z,991.8
2016-08-20T02:28:03.872Z,991.7
2016-08-20T02:28:28.004Z,991.8
2016-08-20T02:28:52.159Z,991.8
2016-08-20T02:29:16.332Z,991.7
2016-08-20T02:29:40.556Z,991.8
2016-08-20T02:30:04.686Z,991.8
2016-08-20T02:30:28.826Z,991.8
2016-08-20T02:30:52.956Z,991.8
2016-08-20T02:31:17.079Z,991.8
2016-08-20T02:31:41.190Z,991.8
2016-08-20T02:32:05.356Z,991.8
2016-08-20T02:32:29.470Z,991.8
2016-08-20T02:32:53.567Z,991.8
2016-08-20T02:33:17.710Z,991.8
2016-08-20T02:33:41.963Z,991.8
2016-08-20T02:34:06.079Z,991.8
2016-08-20T02:34:30.214Z,991.8
2016-08-20T02:34:54.354Z,991.8
2016-08-20T02:35:18.482Z,991.8
2016-08-20T02:35:42.648Z,991.8
2016-08-20T02:36:06.748Z,991.8
2016-08-20T02:36:30.893Z,991.8
2016-08-20T02:36:55.056Z,991.8
2016-08-20T02:37:19.197Z,991.8
2016-08-20T02:37:43.315Z,991.8
2016-08-20T02:38:07.479Z,991.8
2016-08-20T02:38:31.612Z,991.8
2016-08-20T02:38:55.751Z,991.8
2016-08-20T02:39:19.889Z,991.8
2016-08-20T02:39:44.051Z,991.8
2016-08-20T02:40:08.166Z,991.8
2016-08-20T02:40:32.280Z,991.8
2016-08-20T02:40:56.418Z,991.9
2016-08-20T02:41:20.546Z,991.8
2016-08-20T02:41:44.687Z,991.8
2016-08-20T02:42:08.787Z,991.8
2016-08-20T02:42:32.883Z,991.8
2016-08-20T02:42:57.005Z,991.8
2016-08-20T02:43:21.106Z,991.8
2016-08-20T02:43:45.265Z,991.8
2016-08-20T02:44:09.385Z,991.8
2016-08-20T02:44:33.485Z,991.8
2016-08-20T02:44:57.598Z,991.8
2016-08-20T02:45:21.725Z,991.8
2016-08-20T02:45:45.849Z,991.8
2016-08-20T02:46:09.941Z,991.8
2016-08-20T02:46:34.075Z,991.8
2016-08-20T02:46:58.189Z,991.8
2016-08-20T02:47:22.308Z,991.8
2016-08-20T02:47:46.551Z,991.9
2016-08-20T02:48:10.683Z,991.8
2016-08-20T02:48:34.869Z,991.8
2016-08-20T02:48:58.975Z,991.8
2016-08-20T02:49:23.249Z,991.8
2016-08-20T02:49:47.367Z,991.8
2016-08-20T02:50:11.462Z,991.8
2016-08-20T02:50:35.582Z,991.8
2016-08-20T02:50:59.683Z,991.8
2016-08-20T02:51:23.789Z,991.8
2016-08-20T02:51:47.910Z,991.9
2016-08-20T02:52:12.054Z,991.8
2016-08-20T02:52:36.159Z,991.9
2016-08-20T02:53:00.255Z,991.8
2016-08-20T02:53:24.383Z,991.9
2016-08-20T02:53:48.527Z,991.9
2016-08-20T02:54:12.666Z,991.9
2016-08-20T02:54:36.772Z,991.9
2016-08-20T02:55:00.897Z,991.9
2016-08-20T02:55:24.998Z,991.9
2016-08-20T02:55:49.127Z,991.8
2016-08-20T02:56:13.233Z,991.9
2016-08-20T02:56:37.357Z,991.9
2016-08-20T02:57:01.472Z,991.9
2016-08-20T02:57:25.569Z,991.9
2016-08-20T02:57:49.721Z,991.9
2016-08-20T02:58:13.894Z,991.9
2016-08-20T02:58:38.005Z,991.9
2016-08-20T02:59:02.130Z,991.9
2016-08-20T02:59:26.232Z,991.9
2016-08-20T02:59:50.338Z,991.9
2016-08-20T03:00:14.461Z,991.9
2016-08-20T03:00:38.601Z,991.8
2016-08-20T03:01:02.742Z,991.9
2016-08-20T03:01:26.870Z,991.9
2016-08-20T03:01:51.014Z,991.9
2016-08-20T03:02:15.123Z,991.9
2016-08-20T03:02:39.269Z,991.9
2016-08-20T03:03:03.415Z,991.9
2016-08-20T03:03:27.530Z,992
2016-08-20T03:03:51.633Z,992
2016-08-20T03:04:15.783Z,992
2016-08-20T03:04:39.905Z,992
2016-08-20T03:05:04.025Z,992
2016-08-20T03:05:29.010Z,992
2016-08-20T03:05:53.156Z,992
2016-08-20T03:06:17.288Z,992
2016-08-20T03:06:41.398Z,992
2016-08-20T03:07:05.513Z,991.9
2016-08-20T03:07:29.658Z,992
2016-08-20T03:07:53.736Z,992
2016-08-20T03:08:17.841Z,992
2016-08-20T03:08:41.964Z,992
2016-08-20T03:09:06.082Z,992
2016-08-20T03:09:30.160Z,992
2016-08-20T03:09:54.279Z,992
2016-08-20T03:10:18.400Z,992
2016-08-20T03:10:42.538Z,992
2016-08-20T03:11:06.641Z,992
2016-08-20T03:11:30.778Z,992
2016-08-20T03:11:54.889Z,992
2016-08-20T03:12:19.007Z,992
2016-08-20T03:12:43.107Z,992
2016-08-20T03:13:07.219Z,992
2016-08-20T03:13:31.338Z,992
2016-08-20T03:13:55.480Z,992
2016-08-20T03:14:19.596Z,992
2016-08-20T03:14:43.725Z,992
2016-08-20T03:15:07.847Z,992
2016-08-20T03:15:31.994Z,992
2016-08-20T03:15:56.114Z,992
2016-08-20T03:16:20.207Z,992
2016-08-20T03:16:44.344Z,992
2016-08-20T03:17:08.455Z,992
2016-08-20T03:17:32.585Z,992
2016-08-20T03:17:56.730Z,992
2016-08-20T03:18:20.910Z,992
2016-08-20T03:18:45.026Z,992
2016-08-20T03:19:09.130Z,992.1
2016-08-20T03:19:33.237Z,992
2016-08-20T03:19:57.408Z,992
2016-08-20T03:20:21.525Z,992
2016-08-20T03:20:45.672Z,992
2016-08-20T03:21:09.775Z,992.1
2016-08-20T03:21:33.893Z,992
2016-08-20T03:21:58.037Z,992
2016-08-20T03:22:22.156Z,992
2016-08-20T03:22:46.301Z,992.1
2016-08-20T03:23:10.418Z,992.1
2016-08-20T03:23:34.531Z,992.1
2016-08-20T03:23:58.636Z,992.1
2016-08-20T03:24:22.796Z,992.1
2016-08-20T03:24:46.896Z,992.1
2016-08-20T03:25:11.042Z,992.1
2016-08-20T03:25:35.190Z,992.1
2016-08-20T03:25:59.334Z,992.1
2016-08-20T03:26:23.463Z,992.1
2016-08-20T03:26:47.572Z,992.1
2016-08-20T03:27:11.652Z,992.1
2016-08-20T03:27:35.753Z,992.1
2016-08-20T03:27:59.875Z,992.1
2016-08-20T03:28:24.000Z,992.1
2016-08-20T03:28:48.111Z,992.1
2016-08-20T03:29:12.220Z,992.1
2016-08-20T03:29:36.356Z,992.1
2016-08-20T03:30:00.467Z,992.1
2016-08-20T03:30:24.562Z,992.1
2016-08-20T03:30:48.737Z,992.1
2016-08-20T03:31:12.824Z,992.1
2016-08-20T03:31:36.940Z,992.1
2016-08-20T03:32:01.092Z,992.1
2016-08-20T03:32:25.219Z,992.1
2016-08-20T03:32:49.309Z,992.1
2016-08-20T03:33:13.438Z,992.1
2016-08-20T03:33:37.569Z,992.1
2016-08-20T03:34:01.728Z,992.1
2016-08-20T03:34:25.828Z,992.1
2016-08-20T03:34:50.038Z,992.1
2016-08-20T03:35:14.145Z,992.1
2016-08-20T03:35:38.303Z,992.1
2016-08-20T03:36:02.415Z,992.1
2016-08-20T03:36:26.576Z,992.1
2016-08-20T03:36:50.691Z,992.1
2016-08-20T03:37:14.837Z,992.1
2016-08-20T03:37:38.938Z,992.1
2016-08-20T03:38:03.041Z,992.1
2016-08-20T03:38:27.169Z,992.1
2016-08-20T03:38:51.268Z,992
2016-08-20T03:39:15.411Z,992.1
2016-08-20T03:39:39.527Z,992.1
2016-08-20T03:40:03.648Z,992.1
2016-08-20T03:40:27.796Z,992.1
2016-08-20T03:40:51.896Z,992.1
2016-08-20T03:41:16.002Z,992.1
2016-08-20T03:41:40.097Z,992.1
2016-08-20T03:42:04.202Z,992
2016-08-20T03:42:28.337Z,992.1
2016-08-20T03:42:52.432Z,992.1
2016-08-20T03:43:16.558Z,992.1
2016-08-20T03:43:40.693Z,992
2016-08-20T03:44:04.819Z,992.1
2016-08-20T03:44:28.936Z,992
2016-08-20T03:44:53.064Z,992.1
2016-08-20T03:45:17.201Z,992.1
2016-08-20T03:45:41.331Z,992
2016-08-20T03:46:05.453Z,992.1
2016-08-20T03:46:29.576Z,992.1
2016-08-20T03:46:53.685Z,992.1
2016-08-20T03:47:17.851Z,992.1
2016-08-20T03:47:41.948Z,992.1
2016-08-20T03:48:06.083Z,992.1
2016-08-20T03:48:30.212Z,992.1
2016-08-20T03:48:54.334Z,992.1
2016-08-20T03:49:18.437Z,992.1
2016-08-20T03:49:42.559Z,992.1
2016-08-20T03:50:06.759Z,992.1
2016-08-20T03:50:30.867Z,992.1
2016-08-20T03:50:54.958Z,992.1
2016-08-20T03:51:19.077Z,992.2
2016-08-20T03:51:43.246Z,992.1
2016-08-20T03:52:07.386Z,992.1
2016-08-20T03:52:31.466Z,992.1
2016-08-20T03:52:55.576Z,992.1
2016-08-20T03:53:19.735Z,992.2
2016-08-20T03:53:43.865Z,992.1
2016-08-20T03:54:08.001Z,992.1
2016-08-20T03:54:32.094Z,992.1
2016-08-20T03:54:56.214Z,992.1
2016-08-20T03:55:20.424Z,992.1
2016-08-20T03:55:44.545Z,992.2
2016-08-20T03:56:08.685Z,992.2
2016-08-20T03:56:32.817Z,992.1
2016-08-20T03:56:56.936Z,992.2
2016-08-20T03:57:21.077Z,992.2
2016-08-20T03:57:45.224Z,992.2
2016-08-20T03:58:09.345Z,992.2
2016-08-20T03:58:33.479Z,992.2
2016-08-20T03:58:57.625Z,992.2
2016-08-20T03:59:21.758Z,992.2
2016-08-20T03:59:45.908Z,992.2
2016-08-20T04:00:10.051Z,992.2
2016-08-20T04:00:34.152Z,992.2
2016-08-20T04:00:58.376Z,992.2
2016-08-20T04:01:22.501Z,992.2
2016-08-20T04:01:46.654Z,992.2
2016-08-20T04:02:10.782Z,992.2
2016-08-20T04:02:34.909Z,992.2
2016-08-20T04:02:58.993Z,992.2
2016-08-20T04:03:23.097Z,992.2
2016-08-20T04:03:47.271Z,992.2
2016-08-20T04:04:11.368Z,992.2
2016-08-20T04:04:35.482Z,992.2
2016-08-20T04:04:59.607Z,992.2
2016-08-20T04:05:23.735Z,992.2
2016-08-20T04:05:47.876Z,992.2
2016-08-20T04:06:11.998Z,992.2
2016-08-20T04:06:36.111Z,992.2
2016-08-20T04:07:00.310Z,992.2
2016-08-20T04:07:24.420Z,992.2
2016-08-20T04:07:48.523Z,992.2
2016-08-20T04:08:12.674Z,992.2
2016-08-20T04:08:36.798Z,992.2
2016-08-20T04:09:00.881Z,992.2
2016-08-20T04:09:25.011Z,992.2
2016-08-20T04:09:49.186Z,992.2
2016-08-20T04:10:13.310Z,992.3
2016-08-20T04:10:37.426Z,992.3
2016-08-20T04:11:01.549Z,992.3
2016-08-20T04:11:25.692Z,992.2
2016-08-20T04:11:49.825Z,992.2
2016-08-20T04:12:13.918Z,992.2
2016-08-20T04:12:38.039Z,992.2
2016-08-20T04:13:02.178Z,992.3
2016-08-20T04:13:26.269Z,992.2
2016-08-20T04:13:50.374Z,992.2
2016-08-20T04:14:14.503Z,992.2
2016-08-20T04:14:38.641Z,992.3
2016-08-20T04:15:02.779Z,992.2
2016-08-20T04:15:26.880Z,992.3
2016-08-20T04:15:50.986Z,992.3
2016-08-20T04:16:15.110Z,992.3
2016-08-20T04:16:39.221Z,992.3
2016-08-20T04:17:03.347Z,992.3
2016-08-20T04:17:27.457Z,992.3
2016-08-20T04:17:51.646Z,992.3
2016-08-20T04:18:15.748Z,992.3
2016-08-20T04:18:39.935Z,992.3
2016-08-20T04:19:04.074Z,992.3
2016-08-20T04:19:28.275Z,992.3
2016-08-20T04:19:52.398Z,992.3
2016-08-20T04:20:16.610Z,992.3
2016-08-20T04:20:40.764Z,992.4
2016-08-20T04:21:04.922Z,992.3
2016-08-20T04:21:29.107Z,992.3
2016-08-20T04:21:53.225Z,992.4
2016-08-20T04:22:17.372Z,992.4
2016-08-20T04:22:41.542Z,992.4
2016-08-20T04:23:05.608Z,992.4
2016-08-20T04:23:29.756Z,992.4
2016-08-20T04:23:53.856Z,992.4
2016-08-20T04:24:17.978Z,992.4
2016-08-20T04:24:42.175Z,992.4
2016-08-20T04:25:08.233Z,992.5
2016-08-20T04:27:20.366Z,992.6
2016-08-20T04:27:44.605Z,992.6
2016-08-20T04:28:09.664Z,992.6
2016-08-20T04:28:33.935Z,992.6
2016-08-20T04:29:02.923Z,992.6
2016-08-20T04:29:40.001Z,992.6
2016-08-20T04:30:06.100Z,992.6
2016-08-20T04:30:30.290Z,992.6
2016-08-20T04:30:55.444Z,992.6
2016-08-20T04:31:22.133Z,992.6
2016-08-20T04:31:56.314Z,992.7
2016-08-20T04:32:27.059Z,992.8
2016-08-20T04:32:53.039Z,992.8
2016-08-20T04:33:21.258Z,992.8
2016-08-20T04:33:53.316Z,992.8
2016-08-20T04:34:19.826Z,992.8
2016-08-20T04:34:46.166Z,992.7
2016-08-20T04:35:13.592Z,992.7
2016-08-20T04:35:39.260Z,992.7
2016-08-20T04:36:13.144Z,992.7
2016-08-20T04:36:38.584Z,992.7
2016-08-20T04:37:04.136Z,992.7
2016-08-20T04:37:28.705Z,992.7
2016-08-20T04:37:53.352Z,992.7
2016-08-20T04:38:17.729Z,992.8
2016-08-20T04:38:41.852Z,992.7
2016-08-20T04:39:05.959Z,992.7
2016-08-20T04:39:30.289Z,992.7
2016-08-20T04:39:56.854Z,992.7
2016-08-20T04:40:25.120Z,992.8
2016-08-20T04:40:49.443Z,992.7
2016-08-20T04:41:14.550Z,992.7
2016-08-20T04:41:42.418Z,992.7
2016-08-20T04:42:08.194Z,992.7
2016-08-20T04:42:36.256Z,992.8
2016-08-20T04:43:01.139Z,992.8
2016-08-20T04:43:27.970Z,992.8
2016-08-20T04:43:55.534Z,992.8
2016-08-20T04:44:21.850Z,992.8
2016-08-20T04:44:51.032Z,992.8
2016-08-20T04:45:17.186Z,992.8
2016-08-20T04:45:43.706Z,992.8
2016-08-20T04:46:09.069Z,992.9
2016-08-20T04:46:34.727Z,992.9
2016-08-20T04:47:02.303Z,992.9
2016-08-20T04:47:31.831Z,992.9
2016-08-20T04:48:00.754Z,992.9
2016-08-20T04:48:26.079Z,992.9
2016-08-20T04:48:52.743Z,992.9
2016-08-20T04:49:19.535Z,992.9
2016-08-20T04:49:46.045Z,992.8
2016-08-20T04:50:12.654Z,992.9
2016-08-20T04:50:39.169Z,992.9
2016-08-20T04:51:04.138Z,992.9
2016-08-20T04:51:29.410Z,992.9
2016-08-20T04:51:54.069Z,992.9
2016-08-20T04:52:18.180Z,992.9
2016-08-20T04:52:42.293Z,992.8
2016-08-20T04:53:06.419Z,992.8
2016-08-20T04:53:30.541Z,992.8
2016-08-20T04:53:54.673Z,992.8
2016-08-20T04:54:18.789Z,992.9
2016-08-20T04:54:42.903Z,992.8
2016-08-20T04:55:07.020Z,992.8
2016-08-20T04:55:31.157Z,992.8
2016-08-20T04:55:55.321Z,992.8
2016-08-20T04:56:19.489Z,992.8
2016-08-20T04:56:43.615Z,992.8
2016-08-20T04:57:07.740Z,992.8
2016-08-20T04:57:31.901Z,992.8
2016-08-20T04:57:56.059Z,992.8
2016-08-20T04:58:20.184Z,992.8
2016-08-20T04:58:44.344Z,992.8
2016-08-20T04:59:08.485Z,992.8
2016-08-20T04:59:32.623Z,992.8
2016-08-20T04:59:56.736Z,992.8
2016-08-20T05:00:20.876Z,992.8
2016-08-20T05:00:45.090Z,992.8
2016-08-20T05:01:09.210Z,992.8
2016-08-20T05:01:33.420Z,992.8
2016-08-20T05:01:57.848Z,992.8
2016-08-20T05:02:22.023Z,992.8
2016-08-20T05:02:46.138Z,992.8
2016-08-20T05:03:10.290Z,992.8
2016-08-20T05:03:34.412Z,992.8
2016-08-20T05:03:58.552Z,992.8
2016-08-20T05:04:22.797Z,992.9
2016-08-20T05:04:46.954Z,992.9
2016-08-20T05:05:11.095Z,992.9
2016-08-20T05:05:35.241Z,992.9
2016-08-20T05:05:59.398Z,992.9
2016-08-20T05:06:23.588Z,992.9
2016-08-20T05:06:47.707Z,992.9
2016-08-20T05:07:11.837Z,993
2016-08-20T05:07:36.012Z,993
2016-08-20T05:08:00.107Z,992.9
2016-08-20T05:08:24.257Z,993
2016-08-20T05:08:48.486Z,993
2016-08-20T05:09:12.629Z,993
2016-08-20T05:09:36.799Z,993
2016-08-20T05:10:00.948Z,993
2016-08-20T05:10:25.117Z,993
2016-08-20T05:10:49.250Z,992.9
2016-08-20T05:11:13.376Z,993
2016-08-20T05:11:37.473Z,993
2016-08-20T05:12:01.624Z,992.9
2016-08-20T05:12:25.731Z,993
2016-08-20T05:12:49.872Z,993
2016-08-20T05:13:14.000Z,993
2016-08-20T05:13:38.147Z,993
2016-08-20T05:14:02.271Z,993
2016-08-20T05:14:26.409Z,993
2016-08-20T05:14:50.519Z,993
2016-08-20T05:15:14.638Z,993
2016-08-20T05:15:38.838Z,993
2016-08-20T05:16:02.983Z,993
2016-08-20T05:16:27.109Z,993
2016-08-20T05:16:51.242Z,993